Time;durP1;ratioP1;P1;durP2;ratioP2;P2;SDS_P1;SDS_P2;PMS_P1;PMS_P2;Temp;Humidity;BMP_temperature;BMP_pressure;BME280_temperature;BME280_humidity;BME280_pressure;Samples;Min_cycle;Max_cycle;Signal;HPM_P1;HPM_P2
2023/04/17 00:00:43;;;;;;;21.92;14.15;;;;;;;;;;10291331;28;20064;-64
2023/04/17 00:05:44;;;;;;;27.00;15.75;;;;;;;;;;10290145;28;20061;-64
2023/04/17 00:10:42;;;;;;;27.90;15.85;;;;;;;;;;10288203;28;20107;-64
2023/04/17 00:15:51;;;;;;;29.65;16.10;;;;;;;;;;10289533;28;20072;-64
2023/04/17 00:20:50;;;;;;;30.85;15.77;;;;;;;;;;10290989;28;20064;-64
2023/04/17 00:25:48;;;;;;;23.58;14.82;;;;;;;;;;10288404;28;20075;-64
2023/04/17 00:30:46;;;;;;;27.27;16.33;;;;;;;;;;10290271;28;20072;-64
2023/04/17 00:35:45;;;;;;;24.00;15.93;;;;;;;;;;10291939;28;20517;-64
2023/04/17 00:40:45;;;;;;;29.67;16.65;;;;;;;;;;10286912;28;20204;-64
2023/04/17 00:45:43;;;;;;;24.45;15.15;;;;;;;;;;10285203;28;20091;-64
2023/04/17 00:50:41;;;;;;;26.25;15.35;;;;;;;;;;10289540;28;20080;-64
2023/04/17 00:55:41;;;;;;;21.75;14.48;;;;;;;;;;10287214;28;20072;-64
2023/04/17 01:00:40;;;;;;;26.42;15.50;;;;;;;;;;10287442;28;20503;-64
2023/04/17 01:05:39;;;;;;;23.00;13.65;;;;;;;;;;10274350;28;20541;-64
2023/04/17 01:10:37;;;;;;;25.73;15.52;;;;;;;;;;10272956;28;20443;-64
2023/04/17 01:15:38;;;;;;;21.55;14.13;;;;;;;;;;10287716;28;20084;-64
2023/04/17 01:20:38;;;;;;;24.85;15.63;;;;;;;;;;10284714;28;20569;-64
2023/04/17 01:25:38;;;;;;;25.08;15.98;;;;;;;;;;10288597;28;20064;-64
2023/04/17 01:30:36;;;;;;;21.60;15.35;;;;;;;;;;10285104;28;20072;-64
2023/04/17 01:35:39;;;;;;;27.17;15.35;;;;;;;;;;10274520;28;20072;-64
2023/04/17 01:40:38;;;;;;;20.77;14.52;;;;;;;;;;10269317;28;20078;-64
2023/04/17 01:45:37;;;;;;;23.13;16.08;;;;;;;;;;10286524;28;20514;-64
2023/04/17 01:50:35;;;;;;;27.20;16.90;;;;;;;;;;10286729;28;20564;-64
2023/04/17 01:55:33;;;;;;;22.20;15.85;;;;;;;;;;10286396;28;20071;-64
2023/04/17 02:00:33;;;;;;;24.05;15.88;;;;;;;;;;10285172;28;20437;-64
2023/04/17 02:05:31;;;;;;;23.20;16.33;;;;;;;;;;10286066;28;20072;-64
2023/04/17 02:10:30;;;;;;;21.63;15.23;;;;;;;;;;10285879;28;20133;-64
2023/04/17 02:15:28;;;;;;;24.13;17.23;;;;;;;;;;10288027;28;20056;-64
2023/04/17 02:20:28;;;;;;;22.45;15.90;;;;;;;;;;10290949;28;20541;-64
2023/04/17 02:25:28;;;;;;;26.88;16.20;;;;;;;;;;10295856;28;20049;-64
2023/04/17 02:30:27;;;;;;;26.58;15.82;;;;;;;;;;10294496;28;20488;-63
2023/04/17 02:35:30;;;;;;;26.85;15.73;;;;;;;;;;10275764;28;20075;-64
2023/04/17 02:40:28;;;;;;;19.23;15.55;;;;;;;;;;10277788;28;20084;-64
2023/04/17 02:45:31;;;;;;;27.50;16.90;;;;;;;;;;10292253;28;20466;-64
2023/04/17 02:50:32;;;;;;;24.25;15.65;;;;;;;;;;10295953;28;20099;-64
2023/04/17 02:55:38;;;;;;;33.58;15.63;;;;;;;;;;10294426;28;20072;-64
2023/04/17 03:00:36;;;;;;;26.60;16.25;;;;;;;;;;10292661;28;20052;-64
2023/04/17 03:05:36;;;;;;;29.38;16.95;;;;;;;;;;10277331;28;20059;-64
2023/04/17 03:10:34;;;;;;;28.77;16.95;;;;;;;;;;10289848;28;20079;-64
2023/04/17 03:15:33;;;;;;;27.55;16.00;;;;;;;;;;10279935;28;20073;-64
2023/04/17 03:20:32;;;;;;;26.15;17.48;;;;;;;;;;10275954;28;20041;-64
2023/04/17 03:25:31;;;;;;;22.75;15.15;;;;;;;;;;10277460;28;20072;-64
2023/04/17 03:30:30;;;;;;;21.08;15.00;;;;;;;;;;10293055;28;20076;-65
2023/04/17 03:35:33;;;;;;;23.13;15.68;;;;;;;;;;10289030;28;20128;-65
2023/04/17 03:40:37;;;;;;;20.63;14.90;;;;;;;;;;10275358;28;20110;-64
2023/04/17 03:45:35;;;;;;;20.63;15.48;;;;;;;;;;10291984;28;20064;-64
2023/04/17 03:50:34;;;;;;;25.38;16.00;;;;;;;;;;10288332;28;20075;-64
2023/04/17 03:55:32;;;;;;;27.77;14.80;;;;;;;;;;10286879;28;20072;-65
2023/04/17 04:00:32;;;;;;;27.50;16.45;;;;;;;;;;10287949;28;20072;-64
2023/04/17 04:05:36;;;;;;;25.40;16.42;;;;;;;;;;10290126;28;20059;-64
2023/04/17 04:10:37;;;;;;;22.75;16.23;;;;;;;;;;10285577;28;20057;-65
2023/04/17 04:15:38;;;;;;;26.35;15.85;;;;;;;;;;10286300;28;20079;-64
2023/04/17 04:20:37;;;;;;;27.02;16.60;;;;;;;;;;10281232;28;20182;-64
2023/04/17 04:25:44;;;;;;;24.92;16.52;;;;;;;;;;10274324;28;20488;-64
2023/04/17 04:31:01;;;;;;;22.90;14.98;;;;;;;;;;10273012;28;20091;-64
2023/04/17 04:36:05;;;;;;;19.92;14.45;;;;;;;;;;10284197;28;20084;-64
2023/04/17 04:41:09;;;;;;;21.17;14.48;;;;;;;;;;10288287;28;20048;-64
2023/04/17 04:46:10;;;;;;;23.60;13.75;;;;;;;;;;10271338;28;20072;-64
2023/04/17 04:51:13;;;;;;;;;;;;;;;;;;10285891;28;20486;-65
2023/04/17 04:56:12;;;;;;;17.92;13.38;;;;;;;;;;10286874;28;19951;-65
2023/04/17 05:01:12;;;;;;;24.70;13.98;;;;;;;;;;10288422;28;20068;-64
2023/04/17 05:06:14;;;;;;;19.33;14.20;;;;;;;;;;10271244;28;20511;-65
2023/04/17 05:11:20;;;;;;;23.20;14.45;;;;;;;;;;10287157;28;20081;-65
2023/04/17 05:16:22;;;;;;;20.05;15.55;;;;;;;;;;10285837;28;20080;-64
2023/04/17 05:21:21;;;;;;;26.55;14.68;;;;;;;;;;10274990;28;20080;-64
2023/04/17 05:26:21;;;;;;;19.38;15.10;;;;;;;;;;10287022;28;20076;-64
2023/04/17 05:31:20;;;;;;;22.08;14.35;;;;;;;;;;10281520;28;20438;-64
2023/04/17 05:36:21;;;;;;;23.85;16.05;;;;;;;;;;10283782;28;20056;-64
2023/04/17 05:41:20;;;;;;;26.27;17.00;;;;;;;;;;10286994;28;20088;-64
2023/04/17 05:46:19;;;;;;;24.42;17.98;;;;;;;;;;10283476;28;20076;-64
2023/04/17 05:51:17;;;;;;;23.50;19.55;;;;;;;;;;10281656;28;20045;-64
2023/04/17 05:56:17;;;;;;;23.67;15.70;;;;;;;;;;10293822;28;20447;-64
2023/04/17 06:01:16;;;;;;;27.70;16.80;;;;;;;;;;10294467;28;20060;-64
2023/04/17 06:06:14;;;;;;;22.05;15.90;;;;;;;;;;10295551;28;20061;-63
2023/04/17 06:11:14;;;;;;;25.70;16.85;;;;;;;;;;10292965;28;20250;-64
2023/04/17 06:16:15;;;;;;;21.50;14.80;;;;;;;;;;10295160;28;20080;-65
2023/04/17 06:21:15;;;;;;;19.25;13.95;;;;;;;;;;10299874;28;20524;-64
2023/04/17 06:26:14;;;;;;;24.05;15.43;;;;;;;;;;10280330;28;20084;-64
2023/04/17 06:31:12;;;;;;;23.27;15.90;;;;;;;;;;10279154;28;20057;-63
2023/04/17 06:36:12;;;;;;;25.67;13.73;;;;;;;;;;10283033;28;20548;-63
2023/04/17 06:41:17;;;;;;;23.95;14.20;;;;;;;;;;10278350;28;20053;-63
2023/04/17 06:46:15;;;;;;;19.77;14.18;;;;;;;;;;10275228;28;20072;-63
2023/04/17 06:51:16;;;;;;;22.50;14.18;;;;;;;;;;10288984;28;20107;-63
2023/04/17 06:56:14;;;;;;;19.88;15.43;;;;;;;;;;10289399;28;20079;-63
2023/04/17 07:01:13;;;;;;;24.38;16.45;;;;;;;;;;10294661;28;20080;-64
2023/04/17 07:06:12;;;;;;;15.15;13.13;;;;;;;;;;10271770;28;20072;-63
2023/04/17 07:11:11;;;;;;;20.45;13.10;;;;;;;;;;10292420;28;20489;-63
2023/04/17 07:16:09;;;;;;;16.13;11.73;;;;;;;;;;10291102;28;20466;-63
2023/04/17 07:21:08;;;;;;;16.45;11.80;;;;;;;;;;10286392;28;20087;-63
2023/04/17 07:26:06;;;;;;;16.27;13.27;;;;;;;;;;10290704;28;20079;-63
2023/04/17 07:31:07;;;;;;;17.42;13.98;;;;;;;;;;10277856;28;20091;-63
2023/04/17 07:36:07;;;;;;;17.90;14.02;;;;;;;;;;10276704;28;20562;-63
2023/04/17 07:41:05;;;;;;;16.10;13.15;;;;;;;;;;10270385;28;20076;-63
2023/04/17 07:46:03;;;;;;;16.92;11.48;;;;;;;;;;10264404;28;20132;-63
2023/04/17 07:51:03;;;;;;;17.42;11.88;;;;;;;;;;10277878;28;20064;-64
2023/04/17 07:56:01;;;;;;;18.15;12.05;;;;;;;;;;10284759;28;20076;-63
2023/04/17 08:01:00;;;;;;;15.15;13.38;;;;;;;;;;10293639;28;20072;-64
2023/04/17 08:05:59;;;;;;;16.65;14.18;;;;;;;;;;10292382;28;20079;-64
2023/04/17 08:10:58;;;;;;;13.23;11.82;;;;;;;;;;10285904;28;20064;-64
2023/04/17 08:15:56;;;;;;;11.45;9.55;;;;;;;;;;10267439;28;20080;-64
2023/04/17 08:20:55;;;;;;;13.32;8.73;;;;;;;;;;10272005;28;20063;-64
2023/04/17 08:25:53;;;;;;;11.07;9.07;;;;;;;;;;10284677;28;20535;-64
2023/04/17 08:30:52;;;;;;;12.65;10.32;;;;;;;;;;10286705;28;20517;-64
2023/04/17 08:35:51;;;;;;;12.98;11.07;;;;;;;;;;10287039;28;20087;-64
2023/04/17 08:40:50;;;;;;;23.92;15.00;;;;;;;;;;10285530;28;20084;-64
2023/04/17 08:45:52;;;;;;;19.40;12.82;;;;;;;;;;10288659;28;20075;-64
2023/04/17 08:50:53;;;;;;;12.57;10.38;;;;;;;;;;10276162;28;20072;-64
2023/04/17 08:55:51;;;;;;;14.65;10.85;;;;;;;;;;10263416;28;20079;-63
2023/04/17 09:00:50;;;;;;;13.73;11.20;;;;;;;;;;10282076;28;20061;-63
2023/04/17 09:05:48;;;;;;;12.45;10.20;;;;;;;;;;10259536;28;20080;-64
2023/04/17 09:10:48;;;;;;;17.58;11.65;;;;;;;;;;10263952;28;20068;-63
2023/04/17 09:15:47;;;;;;;14.73;10.68;;;;;;;;;;10284879;28;20567;-63
2023/04/17 09:20:48;;;;;;;15.68;11.85;;;;;;;;;;10286152;28;20068;-64
2023/04/17 09:26:04;;;;;;;16.80;9.20;;;;;;;;;;10286748;28;20068;-63
2023/04/17 09:31:03;;;;;;;11.65;8.13;;;;;;;;;;10269789;28;20079;-64
2023/04/17 09:36:21;;;;;;;8.18;7.38;;;;;;;;;;10283828;28;20464;-64
2023/04/17 09:41:24;;;;;;;7.20;6.50;;;;;;;;;;10267767;28;20100;-63
2023/04/17 09:46:31;;;;;;;10.48;7.85;;;;;;;;;;10268063;28;20573;-64
2023/04/17 09:51:30;;;;;;;8.73;7.88;;;;;;;;;;10273213;28;20486;-63
2023/04/17 09:56:32;;;;;;;11.00;8.68;;;;;;;;;;10283156;28;20072;-63
2023/04/17 10:01:31;;;;;;;7.50;6.57;;;;;;;;;;10270680;28;20080;-63
2023/04/17 10:06:30;;;;;;;8.85;7.93;;;;;;;;;;10276177;28;20072;-64
2023/04/17 10:11:30;;;;;;;9.77;8.27;;;;;;;;;;10271208;28;20077;-65
2023/04/17 10:16:34;;;;;;;9.60;7.13;;;;;;;;;;10273755;28;20072;-65
2023/04/17 10:21:33;;;;;;;7.10;6.40;;;;;;;;;;10267956;28;20056;-65
2023/04/17 10:26:36;;;;;;;8.05;6.30;;;;;;;;;;10282931;28;20481;-65
2023/04/17 10:31:53;;;;;;;7.35;6.50;;;;;;;;;;10283928;28;20075;-65
2023/04/17 10:36:51;;;;;;;6.15;5.55;;;;;;;;;;10288635;28;20065;-64
2023/04/17 10:42:03;;;;;;;6.90;6.20;;;;;;;;;;10287369;28;20092;-64
2023/04/17 10:47:05;;;;;;;6.82;6.22;;;;;;;;;;10295824;28;20430;-64
2023/04/17 10:52:03;;;;;;;14.27;7.40;;;;;;;;;;10281487;28;20099;-64
2023/04/17 10:57:09;;;;;;;7.50;6.63;;;;;;;;;;10273655;28;20095;-64
2023/04/17 11:02:08;;;;;;;8.35;7.22;;;;;;;;;;10288751;28;20068;-65
2023/04/17 11:07:06;;;;;;;10.77;7.07;;;;;;;;;;10284054;28;20073;-65
2023/04/17 11:12:06;;;;;;;8.18;6.95;;;;;;;;;;10289542;28;20072;-65
2023/04/17 11:17:04;;;;;;;7.55;6.30;;;;;;;;;;10293964;28;20470;-65
2023/04/17 11:22:03;;;;;;;8.32;5.97;;;;;;;;;;10290074;28;20079;-65
2023/04/17 11:27:02;;;;;;;12.07;7.95;;;;;;;;;;10285653;28;20064;-66
2023/04/17 11:32:02;;;;;;;15.07;10.77;;;;;;;;;;10288398;28;20068;-66
2023/04/17 11:37:01;;;;;;;8.85;6.43;;;;;;;;;;10289024;28;20134;-65
2023/04/17 11:42:01;;;;;;;10.52;8.45;;;;;;;;;;10291876;28;20080;-65
2023/04/17 11:46:59;;;;;;;9.15;8.20;;;;;;;;;;10285823;28;20076;-65
2023/04/17 11:52:00;;;;;;;9.13;7.32;;;;;;;;;;10291149;28;20107;-65
2023/04/17 11:57:00;;;;;;;47.00;36.65;;;;;;;;;;10264976;28;20678;-66
2023/04/17 12:01:59;;;;;;;17.55;13.70;;;;;;;;;;10278650;28;20141;-66
2023/04/17 12:06:57;;;;;;;13.63;8.43;;;;;;;;;;10286414;28;20072;-63
2023/04/17 12:11:58;;;;;;;12.98;8.05;;;;;;;;;;10284407;28;20060;-63
2023/04/17 12:16:56;;;;;;;21.25;11.13;;;;;;;;;;10282305;28;20079;-64
2023/04/17 12:21:55;;;;;;;15.88;10.65;;;;;;;;;;10280428;28;20065;-63
2023/04/17 12:26:53;;;;;;;14.60;8.90;;;;;;;;;;10275300;28;20092;-64
2023/04/17 12:31:53;;;;;;;20.33;14.55;;;;;;;;;;10283927;28;20060;-63
2023/04/17 12:36:51;;;;;;;12.43;9.45;;;;;;;;;;10271782;28;20796;-63
2023/04/17 12:41:49;;;;;;;25.88;20.33;;;;;;;;;;10278141;28;20084;-63
2023/04/17 12:46:48;;;;;;;16.95;13.30;;;;;;;;;;10280870;28;20083;-64
2023/04/17 12:51:47;;;;;;;20.33;11.85;;;;;;;;;;10283005;28;20059;-63
2023/04/17 12:56:47;;;;;;;19.23;11.18;;;;;;;;;;10287180;28;20073;-63
2023/04/17 13:01:46;;;;;;;18.27;10.60;;;;;;;;;;10271920;28;20469;-63
2023/04/17 13:06:44;;;;;;;17.23;11.57;;;;;;;;;;10285728;28;20068;-63
2023/04/17 13:11:44;;;;;;;16.10;12.30;;;;;;;;;;10270143;28;20087;-63
2023/04/17 13:16:42;;;;;;;20.40;12.48;;;;;;;;;;10276001;28;20096;-64
2023/04/17 13:21:40;;;;;;;18.83;11.38;;;;;;;;;;10264817;28;20079;-63
2023/04/17 13:26:38;;;;;;;30.70;21.02;;;;;;;;;;10276920;28;20521;-64
2023/04/17 13:31:38;;;;;;;17.27;11.48;;;;;;;;;;10276974;28;20072;-64
2023/04/17 13:36:36;;;;;;;23.23;16.67;;;;;;;;;;10276862;28;20594;-65
2023/04/17 13:41:34;;;;;;;19.98;11.20;;;;;;;;;;10279408;28;20100;-64
2023/04/17 13:46:32;;;;;;;24.80;16.85;;;;;;;;;;10284942;28;20076;-65
2023/04/17 13:51:33;;;;;;;22.20;17.50;;;;;;;;;;10282220;28;20068;-65
2023/04/17 13:56:31;;;;;;;31.65;23.10;;;;;;;;;;10271721;28;20076;-65
2023/04/17 14:01:29;;;;;;;26.05;19.08;;;;;;;;;;10282631;28;20072;-64
2023/04/17 14:06:28;;;;;;;10.88;9.02;;;;;;;;;;10283929;28;20073;-65
2023/04/17 14:11:27;;;;;;;19.67;11.88;;;;;;;;;;10286360;28;20068;-65
2023/04/17 14:16:26;;;;;;;23.25;15.52;;;;;;;;;;10285581;28;20139;-65
2023/04/17 14:21:24;;;;;;;16.42;9.68;;;;;;;;;;10296623;28;20068;-65
2023/04/17 14:26:22;;;;;;;12.77;9.40;;;;;;;;;;10296298;28;20087;-65
2023/04/17 14:31:22;;;;;;;16.45;9.32;;;;;;;;;;10282926;28;20352;-65
2023/04/17 14:36:20;;;;;;;17.35;9.25;;;;;;;;;;10294322;28;20540;-65
2023/04/17 14:41:18;;;;;;;13.75;10.13;;;;;;;;;;10289063;28;20088;-66
2023/04/17 14:46:17;;;;;;;12.98;10.05;;;;;;;;;;10283092;28;20473;-65
2023/04/17 14:51:16;;;;;;;13.20;9.90;;;;;;;;;;10289734;28;20060;-65
2023/04/17 14:56:14;;;;;;;21.02;13.25;;;;;;;;;;10276645;28;20084;-65
2023/04/17 15:01:13;;;;;;;20.48;12.45;;;;;;;;;;10272910;28;20884;-65
2023/04/17 15:06:11;;;;;;;17.55;11.13;;;;;;;;;;10285263;28;20075;-65
2023/04/17 15:11:10;;;;;;;23.17;14.23;;;;;;;;;;10289215;28;20060;-65
2023/04/17 15:16:09;;;;;;;21.25;15.05;;;;;;;;;;10285983;28;20502;-65
2023/04/17 15:21:07;;;;;;;18.83;11.93;;;;;;;;;;10289241;28;20087;-65
2023/04/17 15:26:05;;;;;;;20.75;10.98;;;;;;;;;;10289921;28;20072;-65
2023/04/17 15:31:05;;;;;;;19.02;10.02;;;;;;;;;;10293572;28;20080;-65
2023/04/17 15:36:04;;;;;;;18.65;10.73;;;;;;;;;;10288444;28;20506;-65
2023/04/17 15:41:02;;;;;;;21.25;11.60;;;;;;;;;;10293983;28;20095;-65
2023/04/17 15:46:02;;;;;;;14.80;8.60;;;;;;;;;;10289439;28;20528;-65
2023/04/17 15:51:03;;;;;;;17.73;10.43;;;;;;;;;;10290689;28;20075;-65
2023/04/17 15:56:01;;;;;;;16.17;9.85;;;;;;;;;;10274339;28;20073;-65
2023/04/17 16:01:00;;;;;;;23.77;12.55;;;;;;;;;;10286091;28;20072;-65
2023/04/17 16:05:58;;;;;;;13.65;9.35;;;;;;;;;;10285610;28;20535;-65
2023/04/17 16:10:58;;;;;;;20.42;11.20;;;;;;;;;;10280488;28;20068;-65
2023/04/17 16:15:56;;;;;;;15.25;9.23;;;;;;;;;;10286932;28;20088;-65
2023/04/17 16:20:55;;;;;;;15.95;8.57;;;;;;;;;;10288722;28;20065;-65
2023/04/17 16:25:54;;;;;;;16.55;8.88;;;;;;;;;;10287221;28;20513;-65
2023/04/17 16:30:53;;;;;;;19.00;8.63;;;;;;;;;;10283709;28;20064;-65
2023/04/17 16:35:51;;;;;;;21.70;10.63;;;;;;;;;;10276810;28;20120;-65
2023/04/17 16:40:52;;;;;;;13.48;8.20;;;;;;;;;;10282443;28;20077;-65
2023/04/17 16:45:50;;;;;;;24.27;14.93;;;;;;;;;;10285998;28;20083;-65
2023/04/17 16:50:50;;;;;;;13.07;8.85;;;;;;;;;;10291876;28;20600;-65
2023/04/17 16:55:48;;;;;;;16.10;7.90;;;;;;;;;;10287843;28;20073;-65
2023/04/17 17:00:46;;;;;;;21.05;10.23;;;;;;;;;;10289410;28;20072;-64
2023/04/17 17:05:44;;;;;;;12.93;7.75;;;;;;;;;;10285628;28;20081;-63
2023/04/17 17:10:44;;;;;;;11.48;7.97;;;;;;;;;;10285772;28;20068;-64
2023/04/17 17:15:42;;;;;;;16.50;8.02;;;;;;;;;;10269045;28;20080;-64
2023/04/17 17:20:40;;;;;;;16.27;8.32;;;;;;;;;;10290424;28;20068;-64
2023/04/17 17:25:38;;;;;;;11.82;7.10;;;;;;;;;;10279532;28;20072;-64
2023/04/17 17:30:38;;;;;;;12.43;7.32;;;;;;;;;;10272139;28;20075;-64
2023/04/17 17:35:37;;;;;;;12.02;7.65;;;;;;;;;;10279342;28;20111;-64
2023/04/17 17:40:35;;;;;;;14.63;8.25;;;;;;;;;;10285264;28;20486;-64
2023/04/17 17:45:33;;;;;;;11.45;7.05;;;;;;;;;;10277823;28;20060;-65
2023/04/17 17:50:33;;;;;;;8.80;6.38;;;;;;;;;;10294417;28;20073;-64
2023/04/17 17:55:35;;;;;;;12.63;8.25;;;;;;;;;;10286141;28;20075;-64
2023/04/17 18:00:34;;;;;;;11.27;7.35;;;;;;;;;;10294982;28;20079;-65
2023/04/17 18:05:34;;;;;;;8.75;6.68;;;;;;;;;;10291155;28;20076;-64
2023/04/17 18:10:33;;;;;;;10.43;6.78;;;;;;;;;;10286058;28;20073;-64
2023/04/17 18:15:31;;;;;;;9.95;7.68;;;;;;;;;;10292900;28;20075;-63
2023/04/17 18:20:30;;;;;;;16.13;9.98;;;;;;;;;;10293357;28;20548;-64
2023/04/17 18:25:29;;;;;;;13.50;7.57;;;;;;;;;;10292709;28;20067;-63
2023/04/17 18:30:27;;;;;;;11.20;7.63;;;;;;;;;;10294319;28;20060;-64
2023/04/17 18:35:25;;;;;;;8.85;5.82;;;;;;;;;;10297757;28;20068;-63
2023/04/17 18:40:24;;;;;;;12.32;6.85;;;;;;;;;;10290390;28;20075;-64
2023/04/17 18:45:23;;;;;;;12.57;7.57;;;;;;;;;;10295722;28;20502;-64
2023/04/17 18:50:21;;;;;;;12.55;6.43;;;;;;;;;;10283422;28;20061;-64
2023/04/17 18:55:19;;;;;;;9.73;6.20;;;;;;;;;;10292431;28;20064;-65
2023/04/17 19:00:18;;;;;;;14.23;7.03;;;;;;;;;;10295237;28;20510;-64
2023/04/17 19:05:19;;;;;;;7.35;5.60;;;;;;;;;;10293123;28;20072;-64
2023/04/17 19:10:17;;;;;;;13.05;7.03;;;;;;;;;;10290105;28;20080;-64
2023/04/17 19:15:16;;;;;;;9.80;6.43;;;;;;;;;;10293849;28;20068;-65
2023/04/17 19:20:15;;;;;;;9.85;6.68;;;;;;;;;;10288216;28;20075;-65
2023/04/17 19:25:15;;;;;;;18.20;7.03;;;;;;;;;;10287067;28;20072;-65
2023/04/17 19:30:13;;;;;;;10.18;6.97;;;;;;;;;;10287248;28;20068;-65
2023/04/17 19:35:11;;;;;;;13.50;6.40;;;;;;;;;;10291110;28;20465;-64
2023/04/17 19:40:10;;;;;;;12.23;6.75;;;;;;;;;;10283720;28;20061;-64
2023/04/17 19:45:22;;;;;;;19.00;6.88;;;;;;;;;;10284597;28;20089;-64
2023/04/17 19:50:20;;;;;;;10.85;7.38;;;;;;;;;;10289792;28;20064;-64
2023/04/17 19:55:19;;;;;;;12.15;5.85;;;;;;;;;;10282314;28;20076;-64
2023/04/17 20:00:17;;;;;;;11.05;6.78;;;;;;;;;;10270695;28;20072;-64
2023/04/17 20:05:17;;;;;;;11.43;6.75;;;;;;;;;;10280049;28;20204;-65
2023/04/17 20:10:15;;;;;;;15.57;7.43;;;;;;;;;;10273456;28;20091;-64
2023/04/17 20:15:18;;;;;;;10.07;6.30;;;;;;;;;;10288149;28;20048;-65
2023/04/17 20:20:18;;;;;;;14.43;7.15;;;;;;;;;;10288062;28;20069;-63
2023/04/17 20:25:17;;;;;;;21.65;6.25;;;;;;;;;;10290848;28;20078;-64
2023/04/17 20:30:15;;;;;;;9.93;6.55;;;;;;;;;;10286717;28;20080;-64
2023/04/17 20:35:19;;;;;;;9.63;5.63;;;;;;;;;;10282519;28;20078;-64
2023/04/17 20:40:18;;;;;;;11.75;5.63;;;;;;;;;;10285395;28;20080;-64
2023/04/17 20:45:16;;;;;;;9.38;6.15;;;;;;;;;;10290175;28;20490;-64
2023/04/17 20:50:14;;;;;;;10.75;5.45;;;;;;;;;;10285936;28;20068;-63
2023/04/17 20:55:14;;;;;;;7.03;4.88;;;;;;;;;;10286600;28;20541;-64
2023/04/17 21:00:12;;;;;;;11.90;6.35;;;;;;;;;;10290269;28;20532;-64
2023/04/17 21:05:10;;;;;;;9.63;5.50;;;;;;;;;;10286487;28;20102;-65
2023/04/17 21:10:09;;;;;;;10.65;5.32;;;;;;;;;;10289352;28;20065;-64
2023/04/17 21:15:09;;;;;;;13.25;5.30;;;;;;;;;;10288253;28;20073;-64
2023/04/17 21:20:08;;;;;;;7.32;5.03;;;;;;;;;;10291283;28;20087;-64
2023/04/17 21:25:07;;;;;;;7.55;5.03;;;;;;;;;;10287261;28;20073;-64
2023/04/17 21:30:06;;;;;;;7.97;4.82;;;;;;;;;;10286092;28;20068;-64
2023/04/17 21:35:08;;;;;;;9.27;6.05;;;;;;;;;;10286389;28;20076;-64
2023/04/17 21:40:07;;;;;;;9.55;5.35;;;;;;;;;;10289340;28;20537;-65
2023/04/17 21:45:05;;;;;;;6.47;5.15;;;;;;;;;;10287754;28;20072;-64
2023/04/17 21:50:04;;;;;;;7.65;5.60;;;;;;;;;;10285254;28;20083;-64
2023/04/17 21:55:04;;;;;;;8.07;5.25;;;;;;;;;;10287703;28;20080;-64
2023/04/17 22:00:04;;;;;;;9.15;5.30;;;;;;;;;;10284774;28;20530;-64
2023/04/17 22:05:03;;;;;;;10.70;5.45;;;;;;;;;;10289324;28;20087;-64
2023/04/17 22:10:02;;;;;;;7.32;5.70;;;;;;;;;;10287046;28;20484;-64
2023/04/17 22:15:01;;;;;;;10.00;6.32;;;;;;;;;;10285774;28;20064;-65
2023/04/17 22:19:59;;;;;;;10.05;5.75;;;;;;;;;;10286784;28;20075;-64
2023/04/17 22:24:58;;;;;;;10.70;6.93;;;;;;;;;;10290045;28;20095;-64
2023/04/17 22:29:56;;;;;;;6.32;4.78;;;;;;;;;;10286907;28;20064;-64
2023/04/17 22:34:55;;;;;;;7.53;4.60;;;;;;;;;;10286300;28;20080;-65
2023/04/17 22:39:54;;;;;;;8.13;5.35;;;;;;;;;;10295953;28;20092;-65
2023/04/17 22:44:52;;;;;;;8.02;4.82;;;;;;;;;;10290670;28;20073;-65
2023/04/17 22:49:51;;;;;;;8.50;5.68;;;;;;;;;;10295011;28;20064;-65
2023/04/17 22:54:50;;;;;;;11.85;6.53;;;;;;;;;;10292338;28;20482;-65
2023/04/17 22:59:49;;;;;;;12.23;6.88;;;;;;;;;;10292284;28;20075;-65
2023/04/17 23:04:47;;;;;;;9.90;6.50;;;;;;;;;;10294889;28;20072;-64
2023/04/17 23:09:45;;;;;;;12.23;6.88;;;;;;;;;;10293060;28;20083;-64
2023/04/17 23:14:47;;;;;;;11.70;6.45;;;;;;;;;;10294372;28;20537;-64
2023/04/17 23:19:45;;;;;;;12.52;8.02;;;;;;;;;;10291930;28;20095;-64
2023/04/17 23:24:43;;;;;;;9.82;7.65;;;;;;;;;;10291096;28;20071;-64
2023/04/17 23:29:41;;;;;;;12.70;7.45;;;;;;;;;;10294097;28;20057;-65
2023/04/17 23:34:41;;;;;;;11.93;7.18;;;;;;;;;;10291476;28;20072;-64
2023/04/17 23:39:39;;;;;;;9.52;7.13;;;;;;;;;;10292999;28;20505;-64
2023/04/17 23:44:37;;;;;;;8.93;7.28;;;;;;;;;;10292458;28;20069;-64
2023/04/17 23:49:35;;;;;;;9.55;7.40;;;;;;;;;;10291309;28;20080;-65
2023/04/17 23:54:35;;;;;;;11.13;6.78;;;;;;;;;;10292934;28;20611;-64
2023/04/17 23:59:33;;;;;;;12.63;7.40;;;;;;;;;;10292205;28;20069;-64
